createdAt,value
2022-08-18T00:02:28.263Z,94.60
2022-08-18T00:04:57.782Z,94.60
2022-08-18T00:07:31.897Z,94.40
2022-08-18T00:10:00.812Z,94.40
2022-08-18T00:12:33.062Z,94.50
2022-08-18T00:15:07.242Z,94.50
2022-08-18T00:17:36.420Z,94.60
2022-08-18T00:20:07.469Z,94.90
2022-08-18T00:22:35.096Z,95.10
2022-08-18T00:25:02.279Z,95.00
2022-08-18T00:27:31.332Z,95.00
2022-08-18T00:30:05.178Z,95.10
2022-08-18T00:32:36.450Z,95.00
2022-08-18T00:35:28.873Z,95.10
2022-08-18T00:37:59.859Z,94.80
2022-08-18T00:40:35.768Z,94.90
2022-08-18T00:43:08.276Z,94.80
2022-08-18T00:45:40.587Z,94.90
2022-08-18T00:48:10.311Z,95.10
2022-08-18T00:50:45.368Z,95.10
2022-08-18T00:53:20.972Z,95.10
2022-08-18T00:55:53.912Z,95.30
2022-08-18T00:58:29.543Z,95.20
2022-08-18T01:00:57.540Z,95.20
2022-08-18T01:03:25.420Z,95.20
2022-08-18T01:06:09.547Z,95.20
2022-08-18T01:08:38.896Z,95.40
2022-08-18T01:11:08.226Z,95.40
2022-08-18T01:13:38.797Z,95.40
2022-08-18T01:16:26.050Z,95.60
2022-08-18T01:19:12.631Z,97.60
2022-08-18T01:21:53.851Z,98.00
2022-08-18T01:24:47.073Z,97.10
2022-08-18T01:27:18.751Z,96.70
2022-08-18T01:29:48.557Z,96.20
2022-08-18T01:32:20.501Z,96.10
2022-08-18T01:34:51.951Z,96.10
2022-08-18T01:37:21.818Z,96.40
2022-08-18T01:41:23.171Z,96.70
2022-08-18T01:42:37.656Z,96.80
2022-08-18T01:45:07.542Z,97.40
2022-08-18T01:47:47.674Z,97.60
2022-08-18T01:50:23.478Z,97.90
2022-08-18T01:52:53.797Z,98.40
2022-08-18T01:55:21.393Z,98.30
2022-08-18T01:57:48.539Z,98.60
2022-08-18T02:00:18.408Z,98.70
2022-08-18T02:02:47.178Z,99.50
2022-08-18T02:05:33.638Z,99.90
2022-08-18T02:08:00.955Z,99.90
2022-08-18T02:10:28.310Z,99.90
2022-08-18T02:12:55.563Z,99.90
2022-08-18T02:15:22.877Z,99.90
2022-08-18T02:17:50.481Z,99.90
2022-08-18T02:20:19.669Z,99.90
2022-08-18T02:22:48.215Z,99.90
2022-08-18T02:25:16.329Z,99.90
2022-08-18T02:27:44.621Z,99.90
2022-08-18T02:30:16.105Z,99.90
2022-08-18T02:32:43.615Z,99.90
2022-08-18T02:35:12.205Z,99.90
2022-08-18T02:37:50.471Z,99.90
2022-08-18T02:40:21.729Z,99.90
2022-08-18T02:42:49.917Z,99.90
2022-08-18T02:45:17.039Z,99.90
2022-08-18T02:47:45.111Z,99.90
2022-08-18T02:50:13.582Z,99.90
2022-08-18T02:52:41.490Z,99.90
2022-08-18T02:55:09.639Z,99.90
2022-08-18T02:57:37.154Z,99.90
2022-08-18T03:00:05.062Z,99.90
2022-08-18T03:02:32.473Z,99.90
2022-08-18T03:04:59.647Z,99.90
2022-08-18T03:07:26.819Z,99.90
2022-08-18T03:09:53.873Z,99.90
2022-08-18T03:12:21.078Z,99.90
2022-08-18T03:14:48.542Z,99.90
2022-08-18T03:17:15.685Z,99.90
2022-08-18T03:19:45.247Z,99.90
2022-08-18T03:22:28.168Z,99.90
2022-08-18T03:24:57.257Z,99.90
2022-08-18T03:27:25.169Z,99.90
2022-08-18T03:29:52.553Z,99.90
2022-08-18T03:32:19.747Z,99.90
2022-08-18T03:34:46.814Z,99.90
2022-08-18T03:37:16.514Z,99.90
2022-08-18T03:39:43.827Z,99.90
2022-08-18T03:42:11.101Z,99.90
2022-08-18T03:44:38.210Z,99.90
2022-08-18T03:47:12.046Z,99.90
2022-08-18T03:49:39.398Z,99.90
2022-08-18T03:52:09.909Z,99.90
2022-08-18T03:54:39.319Z,99.90
2022-08-18T03:57:11.303Z,99.90
2022-08-18T03:59:41.614Z,99.90
2022-08-18T04:02:08.701Z,99.90
2022-08-18T04:04:35.855Z,99.90
2022-08-18T04:07:07.987Z,99.90
2022-08-18T04:09:37.549Z,99.90
2022-08-18T04:12:15.320Z,99.90
2022-08-18T04:14:48.017Z,99.90
